Terminal Aerodrome Forecast
Issued by NWS

Home | Current Version | Previous Version | Text Only | Print | Product List | Glossary On
Versions: 1 2 3 4 5 6 7 8 9 10 11 12 13 14 15 16 17 18 19 20 21 22 23 24 25 26 27 28 29 30 31 32 33 34 35 36 37 38 39 40 41 42 43 44 45 46 47 48 49 50
000
FTUS44 KLIX 240900 AAB
TAFASD
TAF AMD
KASD 240952Z 2410/2506 VRB03KT P6SM OVC004
      TEMPO 2410/2413 2SM BR
     FM241400 18008KT P6SM SCT035
     FM250100 18007KT P6SM SCT250=

USA.gov is the U.S. government's official web portal to all federal, state and local government web resources and services.